Time;durP1;ratioP1;P1;durP2;ratioP2;P2;SDS_P1;SDS_P2;PMS_P1;PMS_P2;Temp;Humidity;BMP_temperature;BMP_pressure;BME280_temperature;BME280_humidity;BME280_pressure;Samples;Min_cycle;Max_cycle;Signal;HPM_P1;HPM_P2
2022/07/02 00:00:08;;;;;;;5.00;2.35;;;;;;;15.55;68.78;99768.22;5142783;28;20073;-71
2022/07/02 00:03:01;;;;;;;4.43;2.63;;;;;;;15.54;69.09;99769.22;5137496;28;20061;-71
2022/07/02 00:05:56;;;;;;;3.83;2.30;;;;;;;15.49;68.86;99762.47;5143004;28;20417;-71
2022/07/02 00:08:46;;;;;;;4.38;3.00;;;;;;;15.32;68.60;99744.66;5155985;28;20086;-71
2022/07/02 00:11:38;;;;;;;6.45;2.55;;;;;;;15.16;68.87;99764.06;5141449;28;20497;-71
2022/07/02 00:14:29;;;;;;;3.70;3.03;;;;;;;15.28;69.50;99765.50;5136984;28;20091;-71
2022/07/02 00:17:21;;;;;;;7.15;2.90;;;;;;;15.30;69.20;99773.38;5128404;28;20413;-71
2022/07/02 00:20:12;;;;;;;3.97;2.72;;;;;;;15.18;69.56;99762.09;5142080;28;20074;-71
2022/07/02 00:23:02;;;;;;;4.18;2.33;;;;;;;15.23;69.39;99777.66;5141848;28;20580;-71
2022/07/02 00:25:56;;;;;;;7.93;2.70;;;;;;;15.40;68.73;99778.63;5141739;28;20552;-71
2022/07/02 00:29:00;;;;;;;3.67;3.00;;;;;;;15.25;68.90;99778.34;5142016;28;20161;-71
2022/07/02 00:31:51;;;;;;;3.50;2.78;;;;;;;15.15;69.13;99758.88;5140944;28;20136;-71
2022/07/02 00:34:44;;;;;;;7.00;2.80;;;;;;;15.24;69.66;99777.50;5143040;28;20088;-71
2022/07/02 00:37:37;;;;;;;4.18;3.05;;;;;;;15.20;69.41;99780.66;5141739;28;20050;-71
2022/07/02 00:40:30;;;;;;;6.30;2.95;;;;;;;14.81;69.47;99751.59;5141259;28;20055;-71
2022/07/02 00:43:21;;;;;;;3.47;2.67;;;;;;;14.99;69.10;99773.78;5137923;28;20054;-71
2022/07/02 00:46:13;;;;;;;8.85;2.85;;;;;;;15.00;69.20;99782.66;5142183;28;20049;-71
2022/07/02 00:49:04;;;;;;;6.18;2.75;;;;;;;14.91;69.02;99749.69;5155143;28;20061;-71
2022/07/02 00:51:54;;;;;;;5.88;2.83;;;;;;;15.04;69.45;99765.31;5154092;28;20055;-71
2022/07/02 00:54:44;;;;;;;5.85;3.05;;;;;;;15.03;69.81;99769.81;5142850;28;20476;-71
2022/07/02 00:57:35;;;;;;;2.97;2.30;;;;;;;14.89;69.90;99773.00;5142536;28;20051;-71
2022/07/02 01:00:25;;;;;;;4.53;2.97;;;;;;;14.75;69.89;99762.88;5142475;28;20058;-71
2022/07/02 01:03:18;;;;;;;4.35;3.00;;;;;;;14.89;70.15;99772.19;5140400;28;20077;-71
2022/07/02 01:06:08;;;;;;;6.60;2.83;;;;;;;14.83;69.12;99764.78;5142553;28;20082;-71
2022/07/02 01:12:10;;;;;;;5.72;3.53;;;;;;;14.64;70.11;99721.22;5141246;28;20054;-71
2022/07/02 01:15:00;;;;;;;5.07;3.40;;;;;;;14.74;69.39;99750.53;5141309;28;20051;-71
2022/07/02 01:17:51;;;;;;;4.40;3.13;;;;;;;14.73;69.38;99743.47;5131231;28;20053;-71
2022/07/02 01:20:41;;;;;;;11.60;3.58;;;;;;;14.72;69.16;99753.31;5140663;28;20529;-71
2022/07/02 01:23:31;;;;;;;8.70;3.35;;;;;;;14.75;69.81;99744.19;5142182;28;20158;-71
2022/07/02 01:26:21;;;;;;;8.13;3.50;;;;;;;14.80;70.06;99753.44;5130931;28;20358;-71
2022/07/02 01:29:12;;;;;;;7.38;3.47;;;;;;;14.82;70.30;99766.59;5147068;28;20486;-71
2022/07/02 01:32:03;;;;;;;7.78;3.35;;;;;;;14.85;70.45;99758.28;5141979;28;20117;-71
2022/07/02 01:35:02;;;;;;;7.97;3.95;;;;;;;14.96;69.84;99755.38;5145195;28;20137;-71
2022/07/02 01:37:52;;;;;;;4.45;3.55;;;;;;;14.86;69.92;99756.47;5142353;28;20174;-71
2022/07/02 01:40:43;;;;;;;10.52;3.60;;;;;;;14.87;69.35;99750.97;5140827;28;20120;-71
2022/07/02 01:43:33;;;;;;;8.43;3.38;;;;;;;14.75;70.04;99749.53;5128284;28;20065;-71
2022/07/02 01:46:23;;;;;;;12.15;3.97;;;;;;;14.63;70.37;99732.03;5120456;28;20086;-71
2022/07/02 01:49:14;;;;;;;8.50;3.17;;;;;;;14.68;70.14;99751.97;5155041;28;20065;-71
2022/07/02 01:52:06;;;;;;;4.32;2.90;;;;;;;14.52;69.91;99754.47;5153030;28;20597;-71
2022/07/02 01:54:56;;;;;;;7.93;3.10;;;;;;;14.41;69.80;99763.50;5141695;28;20062;-71
2022/07/02 01:57:46;;;;;;;4.95;3.20;;;;;;;14.47;71.05;99762.03;5140443;28;20050;-71
2022/07/02 02:00:36;;;;;;;6.78;3.03;;;;;;;14.55;70.77;99759.50;5140852;28;20043;-71
2022/07/02 02:03:27;;;;;;;7.10;3.35;;;;;;;14.66;71.31;99750.44;5139896;28;20054;-71
2022/07/02 02:06:17;;;;;;;6.07;2.80;;;;;;;14.87;70.76;99760.81;5141276;28;20066;-71
2022/07/02 02:09:08;;;;;;;8.13;3.40;;;;;;;14.75;71.13;99762.88;5141805;28;20173;-71
2022/07/02 02:11:58;;;;;;;8.77;3.70;;;;;;;14.66;71.10;99755.75;5139441;28;20143;-71
2022/07/02 02:14:49;;;;;;;3.95;3.22;;;;;;;14.55;71.56;99740.81;5140618;28;20173;-71
2022/07/02 02:17:39;;;;;;;6.95;3.90;;;;;;;14.88;71.06;99755.31;5140374;28;20101;-71
2022/07/02 02:20:29;;;;;;;6.10;3.58;;;;;;;14.86;70.73;99751.94;5141177;28;20349;-71
2022/07/02 02:23:19;;;;;;;6.32;3.78;;;;;;;14.84;71.05;99761.97;5140043;28;20077;-71
2022/07/02 02:26:10;;;;;;;6.82;3.38;;;;;;;14.54;71.87;99747.16;5140375;28;20058;-71
2022/07/02 02:29:00;;;;;;;8.20;3.67;;;;;;;14.61;72.08;99752.72;5135809;28;20058;-72
2022/07/02 02:31:51;;;;;;;11.18;3.38;;;;;;;14.90;70.69;99755.16;5139216;28;20157;-71
2022/07/02 02:34:42;;;;;;;9.25;3.47;;;;;;;14.85;70.01;99755.63;5144141;28;20050;-71
2022/07/02 02:37:33;;;;;;;7.57;3.38;;;;;;;14.67;70.98;99736.06;5144091;28;20528;-71
2022/07/02 02:40:23;;;;;;;7.40;4.18;;;;;;;14.90;71.30;99748.00;5130673;28;20560;-71
2022/07/02 02:43:13;;;;;;;8.20;3.75;;;;;;;14.76;70.89;99753.84;5144281;28;20053;-71
2022/07/02 02:46:05;;;;;;;9.18;4.10;;;;;;;14.98;71.37;99755.25;5143584;28;20054;-71
2022/07/02 02:48:55;;;;;;;4.53;3.90;;;;;;;14.93;71.14;99753.03;5145002;28;20130;-71
2022/07/02 02:51:45;;;;;;;9.85;3.80;;;;;;;14.72;70.46;99747.16;5142546;28;20341;-71
2022/07/02 02:54:35;;;;;;;9.43;3.70;;;;;;;14.61;70.36;99750.06;5145092;28;20523;-71
2022/07/02 02:57:27;;;;;;;4.93;3.50;;;;;;;14.37;69.97;99759.44;5143733;28;20465;-71
2022/07/02 03:00:17;;;;;;;15.75;3.55;;;;;;;14.38;69.84;99752.28;5144366;28;20176;-71
2022/07/02 03:03:07;;;;;;;16.67;3.08;;;;;;;14.45;68.96;99759.53;5142792;28;20181;-71
2022/07/02 03:05:57;;;;;;;11.70;3.13;;;;;;;14.28;69.85;99753.16;5144280;28;20047;-71
2022/07/02 03:08:48;;;;;;;6.10;3.30;;;;;;;14.30;69.65;99761.00;5143590;28;20062;-71
2022/07/02 03:11:38;;;;;;;19.17;3.72;;;;;;;14.19;69.97;99758.56;5143052;28;20065;-71
2022/07/02 03:14:28;;;;;;;6.88;3.50;;;;;;;13.93;69.34;99748.56;5129695;28;20105;-71
2022/07/02 03:17:19;;;;;;;11.43;3.55;;;;;;;13.91;70.52;99755.00;5156545;28;20129;-71
2022/07/02 03:20:09;;;;;;;10.80;3.63;;;;;;;13.98;69.96;99762.31;5144244;28;20058;-71
2022/07/02 03:23:00;;;;;;;11.55;3.30;;;;;;;13.90;72.32;99764.84;5143056;28;20460;-72
2022/07/02 03:25:50;;;;;;;6.65;3.03;;;;;;;14.04;71.78;99764.38;5146478;28;20125;-71
2022/07/02 03:28:40;;;;;;;6.25;3.10;;;;;;;14.16;71.47;99756.19;5143074;28;20098;-71
2022/07/02 03:31:32;;;;;;;11.07;3.45;;;;;;;14.20;71.29;99761.06;5141613;28;20566;-71
2022/07/02 03:34:22;;;;;;;15.60;3.90;;;;;;;14.37;71.62;99767.44;5137959;28;20057;-71
2022/07/02 03:37:13;;;;;;;16.38;3.90;;;;;;;14.24;71.00;99774.97;5135321;28;20047;-71
2022/07/02 03:40:04;;;;;;;9.93;3.45;;;;;;;14.05;71.39;99766.06;5140741;28;20050;-71
2022/07/02 03:42:54;;;;;;;14.70;2.83;;;;;;;14.19;70.53;99783.38;5132610;28;20508;-71
2022/07/02 03:45:44;;;;;;;18.42;3.83;;;;;;;13.72;70.09;99702.66;5143656;28;20140;-71
2022/07/02 03:48:35;;;;;;;7.53;2.95;;;;;;;13.91;70.42;99758.53;5142408;28;20058;-71
2022/07/02 03:51:25;;;;;;;10.13;3.28;;;;;;;13.91;70.62;99761.22;5143465;28;20085;-71
2022/07/02 03:54:15;;;;;;;12.00;3.65;;;;;;;14.02;70.71;99776.19;5143790;28;20441;-71
2022/07/02 03:57:06;;;;;;;7.47;3.38;;;;;;;14.04;71.22;99788.38;5143003;28;20478;-71
2022/07/02 03:59:56;;;;;;;7.80;3.20;;;;;;;13.85;71.20;99772.44;5141889;28;20488;-71
2022/07/02 04:02:47;;;;;;;12.38;3.20;;;;;;;13.97;71.08;99783.75;5142999;28;20531;-71
2022/07/02 04:05:37;;;;;;;4.63;3.42;;;;;;;14.10;72.58;99781.59;5143706;28;20062;-71
2022/07/02 04:08:28;;;;;;;8.75;4.15;;;;;;;14.34;71.85;99779.25;5143152;28;20050;-71
2022/07/02 04:11:18;;;;;;;14.20;4.65;;;;;;;14.28;72.11;99776.34;5141747;28;20134;-71
2022/07/02 04:14:08;;;;;;;21.60;4.32;;;;;;;14.18;72.20;99776.38;5141904;28;20081;-71
2022/07/02 04:16:58;;;;;;;23.25;3.95;;;;;;;14.27;71.38;99778.16;5142050;28;20054;-71
2022/07/02 04:19:49;;;;;;;13.15;3.40;;;;;;;14.17;71.31;99768.50;5143223;28;20061;-71
2022/07/02 04:22:39;;;;;;;10.18;3.92;;;;;;;14.24;71.75;99777.63;5142253;28;20109;-71
2022/07/02 04:25:29;;;;;;;9.60;4.38;;;;;;;14.26;71.91;99776.47;5128382;28;20230;-71
2022/07/02 04:28:20;;;;;;;10.68;3.40;;;;;;;14.21;71.44;99777.94;5144274;28;20522;-71
2022/07/02 04:31:10;;;;;;;11.90;4.15;;;;;;;14.12;71.62;99760.13;5147400;28;20057;-71
2022/07/02 04:34:01;;;;;;;10.93;3.97;;;;;;;14.45;71.77;99786.22;5147859;28;20047;-71
2022/07/02 04:36:51;;;;;;;8.18;3.60;;;;;;;14.54;72.00;99785.34;5145506;28;20058;-71
2022/07/02 04:39:44;;;;;;;8.68;4.03;;;;;;;14.51;71.19;99793.66;5132179;28;20054;-71
2022/07/02 04:42:35;;;;;;;11.70;4.82;;;;;;;14.87;71.89;99785.69;5142852;28;20098;-71
2022/07/02 04:45:25;;;;;;;6.55;4.22;;;;;;;14.95;72.08;99791.09;5143310;28;20126;-72
2022/07/02 04:48:15;;;;;;;8.90;4.53;;;;;;;14.76;71.73;99773.38;5142242;28;20057;-71
2022/07/02 04:51:06;;;;;;;5.15;4.25;;;;;;;14.80;71.23;99784.59;5143110;28;20183;-71
2022/07/02 04:53:57;;;;;;;9.38;3.90;;;;;;;14.87;71.74;99795.53;5142253;28;20664;-71
2022/07/02 04:56:48;;;;;;;6.53;3.90;;;;;;;14.84;72.48;99799.34;5141541;28;20197;-71
2022/07/02 04:59:39;;;;;;;7.13;4.13;;;;;;;15.02;72.08;99802.84;5141822;28;20152;-71
2022/07/02 05:02:29;;;;;;;5.63;4.30;;;;;;;15.43;70.97;99795.19;5130407;28;20211;-72
2022/07/02 05:05:19;;;;;;;8.60;4.38;;;;;;;15.34;72.10;99790.78;5141023;28;20061;-71
2022/07/02 05:08:10;;;;;;;6.28;4.28;;;;;;;15.42;71.73;99798.84;5143004;28;20049;-71
2022/07/02 05:11:00;;;;;;;12.05;4.47;;;;;;;15.59;71.19;99788.28;5141048;28;20059;-71
2022/07/02 05:13:51;;;;;;;11.32;4.60;;;;;;;15.63;71.85;99797.66;5127398;28;20421;-71
2022/07/02 05:16:41;;;;;;;15.98;5.03;;;;;;;15.83;70.89;99801.84;5141698;28;20050;-71
2022/07/02 05:19:31;;;;;;;8.05;5.15;;;;;;;15.76;72.04;99803.47;5142002;28;20050;-71
2022/07/02 05:22:22;;;;;;;13.00;4.78;;;;;;;15.78;72.28;99801.47;5141075;28;20559;-71
2022/07/02 05:25:12;;;;;;;9.05;4.18;;;;;;;15.89;71.71;99798.56;5141041;28;20137;-70
2022/07/02 05:28:03;;;;;;;9.55;5.20;;;;;;;16.11;70.27;99798.97;5142161;28;20054;-70
2022/07/02 05:30:53;;;;;;;5.22;4.00;;;;;;;15.97;71.01;99800.41;5140905;28;20059;-70
2022/07/02 05:33:43;;;;;;;11.35;4.25;;;;;;;16.41;70.51;99806.47;5127385;28;20173;-70
2022/07/02 05:36:33;;;;;;;6.07;4.22;;;;;;;16.38;69.66;99779.19;5141023;28;20055;-70
2022/07/02 05:39:24;;;;;;;7.90;4.38;;;;;;;16.52;69.12;99807.16;5140906;28;20524;-70
2022/07/02 05:42:14;;;;;;;5.20;4.47;;;;;;;16.27;70.38;99788.34;5140020;28;20063;-70
2022/07/02 05:45:05;;;;;;;11.95;4.70;;;;;;;16.37;70.78;99807.81;5140889;28;20066;-70
2022/07/02 05:47:56;;;;;;;6.70;3.92;;;;;;;16.44;70.76;99802.63;5139240;28;20357;-70
2022/07/02 05:50:46;;;;;;;5.45;3.40;;;;;;;16.67;70.80;99805.56;5141677;28;20050;-70
2022/07/02 05:53:37;;;;;;;4.47;3.65;;;;;;;16.76;70.54;99806.47;5141046;28;20137;-70
2022/07/02 05:56:27;;;;;;;4.75;3.50;;;;;;;16.88;69.51;99789.06;5141651;28;20156;-70
2022/07/02 05:59:17;;;;;;;5.90;4.10;;;;;;;17.10;69.90;99809.03;5141085;28;20054;-70
2022/07/02 06:02:07;;;;;;;5.75;3.97;;;;;;;17.08;68.24;99787.72;5140806;28;20054;-71
2022/07/02 06:04:57;;;;;;;4.90;3.58;;;;;;;17.10;68.64;99809.84;5141386;28;20061;-70
2022/07/02 06:07:48;;;;;;;8.70;3.13;;;;;;;17.21;68.08;99808.69;5141935;28;20501;-70
2022/07/02 06:10:38;;;;;;;5.85;3.15;;;;;;;17.32;69.02;99811.06;5145100;28;20050;-70
2022/07/02 06:13:28;;;;;;;5.57;3.35;;;;;;;17.46;67.88;99795.28;5143701;28;20062;-70
2022/07/02 06:16:19;;;;;;;4.68;2.90;;;;;;;17.73;67.11;99808.34;5145152;28;20050;-70
2022/07/02 06:19:09;;;;;;;2.85;2.50;;;;;;;17.69;67.86;99798.13;5145208;28;20055;-70
2022/07/02 06:21:59;;;;;;;4.05;3.08;;;;;;;17.98;66.74;99805.63;5142561;28;20134;-70
2022/07/02 06:24:49;;;;;;;2.47;2.25;;;;;;;17.93;66.39;99795.41;5145274;28;20061;-70
2022/07/02 06:27:39;;;;;;;5.22;2.60;;;;;;;18.11;66.93;99813.97;5157507;28;20053;-70
2022/07/02 06:30:33;;;;;;;3.90;2.33;;;;;;;18.16;66.32;99811.63;5145093;28;20061;-70
2022/07/02 06:33:23;;;;;;;2.95;2.72;;;;;;;18.44;65.42;99808.47;5144688;28;20051;-70
2022/07/02 06:36:14;;;;;;;2.85;2.25;;;;;;;18.65;65.12;99808.72;5144816;28;20054;-70
2022/07/02 06:39:04;;;;;;;4.00;2.03;;;;;;;18.83;64.49;99804.97;5145330;28;20050;-70
2022/07/02 06:45:05;;;;;;;3.03;2.10;;;;;;;18.86;63.97;99796.53;5143716;28;20070;-71
2022/07/02 06:47:55;;;;;;;4.75;2.00;;;;;;;19.10;63.89;99801.75;5143893;28;20073;-70
2022/07/02 06:50:46;;;;;;;3.15;2.25;;;;;;;19.27;63.70;99799.78;5143590;28;20057;-70
2022/07/02 06:53:36;;;;;;;3.25;2.00;;;;;;;19.67;61.53;99778.97;5144129;28;20359;-70
2022/07/02 06:56:28;;;;;;;2.15;1.52;;;;;;;20.46;59.65;99789.97;5144300;28;20090;-70
2022/07/02 06:59:19;;;;;;;1.95;1.45;;;;;;;22.01;54.71;99787.50;5143593;28;20061;-70
2022/07/02 07:02:09;;;;;;;1.90;1.63;;;;;;;22.55;54.07;99775.16;5132043;28;20042;-71
2022/07/02 07:05:02;;;;;;;2.85;1.23;;;;;;;23.64;50.89;99787.59;5144654;28;20058;-70
2022/07/02 07:07:52;;;;;;;3.78;1.10;;;;;;;23.48;51.60;99777.19;5143451;28;20457;-70
2022/07/02 07:10:43;;;;;;;3.00;0.93;;;;;;;24.11;51.25;99793.81;5143880;28;20055;-70
2022/07/02 07:13:33;;;;;;;0.80;0.73;;;;;;;24.40;48.79;99784.31;5141558;28;20560;-70
2022/07/02 07:16:23;;;;;;;1.17;1.02;;;;;;;25.01;46.67;99785.72;5143712;28;20097;-71
2022/07/02 07:19:14;;;;;;;0.93;0.80;;;;;;;25.48;46.89;99786.22;5142276;28;20057;-70
2022/07/02 07:22:05;;;;;;;1.33;0.80;;;;;;;26.27;46.33;99784.63;5142801;28;20074;-70
2022/07/02 07:24:55;;;;;;;1.55;0.90;;;;;;;26.40;44.62;99791.81;5143102;28;20105;-71
2022/07/02 07:27:46;;;;;;;1.15;0.95;;;;;;;26.76;44.24;99781.97;5143432;28;20089;-71
2022/07/02 07:30:36;;;;;;;1.63;0.75;;;;;;;26.86;43.81;99793.13;5142309;28;20061;-70
2022/07/02 07:33:26;;;;;;;0.65;0.65;;;;;;;26.87;43.24;99782.00;5129093;28;20413;-71
2022/07/02 07:36:18;;;;;;;2.47;0.88;;;;;;;27.34;41.40;99787.59;5146064;28;20501;-71
2022/07/02 07:39:08;;;;;;;0.60;0.60;;;;;;;28.00;41.37;99777.47;5145335;28;20117;-71
2022/07/02 07:41:59;;;;;;;0.75;0.52;;;;;;;27.87;42.25;99781.25;5142031;28;20050;-70
2022/07/02 07:44:49;;;;;;;2.08;0.55;;;;;;;28.29;41.52;99777.53;5146037;28;20442;-70
2022/07/02 07:47:40;;;;;;;0.50;0.50;;;;;;;28.38;38.92;99784.28;5143825;28;20138;-70
2022/07/02 07:50:30;;;;;;;0.85;0.70;;;;;;;28.80;37.85;99764.94;5143451;28;20537;-70
2022/07/02 07:53:20;;;;;;;0.95;0.70;;;;;;;27.89;39.90;99759.25;5142133;28;20078;-70
2022/07/02 07:56:14;;;;;;;0.40;0.40;;;;;;;28.18;39.42;99762.88;5138319;28;20501;-71
2022/07/02 07:59:04;;;;;;;1.17;0.32;;;;;;;28.99;37.91;99763.66;5143382;28;20474;-70
2022/07/02 08:01:54;;;;;;;0.80;0.50;;;;;;;28.77;37.71;99746.31;5141282;28;20141;-70
2022/07/02 08:04:45;;;;;;;3.28;0.60;;;;;;;29.47;38.98;99742.34;5143938;28;20058;-70
2022/07/02 08:07:36;;;;;;;1.05;0.50;;;;;;;28.24;38.17;99761.06;5141998;28;20058;-70
2022/07/02 08:10:27;;;;;;;1.38;0.55;;;;;;;28.20;37.47;99749.81;5152891;28;20054;-70
2022/07/02 08:13:17;;;;;;;0.65;0.47;;;;;;;27.92;35.92;99753.31;5142022;28;20074;-70
2022/07/02 08:16:07;;;;;;;0.73;0.55;;;;;;;28.83;37.75;99748.06;5155297;28;20493;-70
2022/07/02 08:18:58;;;;;;;0.75;0.65;;;;;;;29.70;36.63;99744.06;5143327;28;20079;-71
2022/07/02 08:21:48;;;;;;;3.22;0.50;;;;;;;28.98;36.38;99744.78;5140659;28;20082;-71
2022/07/02 08:24:38;;;;;;;1.17;0.50;;;;;;;29.46;36.28;99729.75;5143221;28;20375;-70
2022/07/02 08:27:29;;;;;;;1.88;0.50;;;;;;;29.73;36.13;99738.13;5143423;28;20117;-71
2022/07/02 08:30:19;;;;;;;1.85;0.60;;;;;;;30.00;34.15;99723.72;5128075;28;20053;-70
2022/07/02 08:33:09;;;;;;;2.40;0.50;;;;;;;30.15;33.52;99724.75;5141432;28;20508;-70
2022/07/02 08:36:00;;;;;;;1.73;0.43;;;;;;;29.62;34.16;99730.84;5128740;28;20058;-70
2022/07/02 08:38:50;;;;;;;3.10;0.60;;;;;;;29.20;33.65;99723.06;5142885;28;20421;-70
2022/07/02 08:41:43;;;;;;;1.73;0.40;;;;;;;29.58;34.48;99726.94;5141014;28;20131;-70
2022/07/02 08:44:34;;;;;;;1.35;0.40;;;;;;;29.86;33.90;99724.09;5143365;28;20062;-70
2022/07/02 08:47:26;;;;;;;3.28;0.50;;;;;;;29.57;33.53;99725.28;5142341;28;20065;-71
2022/07/02 08:50:20;;;;;;;3.72;0.60;;;;;;;30.36;34.83;99711.31;5134981;28;20047;-71
2022/07/02 08:53:10;;;;;;;0.40;0.30;;;;;;;30.37;35.10;99715.75;5141197;28;20054;-71
2022/07/02 08:56:01;;;;;;;3.85;0.50;;;;;;;30.25;34.18;99710.38;5142304;28;20054;-71
2022/07/02 08:58:53;;;;;;;1.85;0.40;;;;;;;30.10;33.23;99699.22;5142766;28;20113;-70
2022/07/02 09:01:46;;;;;;;1.10;0.50;;;;;;;28.91;32.09;99703.19;5139878;28;20081;-70
2022/07/02 09:04:40;;;;;;;0.98;0.47;;;;;;;29.09;33.45;99699.41;5141699;28;20516;-71
2022/07/02 09:07:34;;;;;;;1.85;0.50;;;;;;;29.28;32.72;99681.69;5141949;28;20189;-70
2022/07/02 09:10:26;;;;;;;1.70;0.70;;;;;;;30.26;31.77;99692.88;5141747;28;20058;-71
2022/07/02 09:13:17;;;;;;;0.75;0.47;;;;;;;30.31;30.52;99686.66;5141053;28;20058;-70
2022/07/02 09:16:07;;;;;;;2.15;0.40;;;;;;;29.80;32.19;99686.84;5141800;28;20141;-70
2022/07/02 09:18:58;;;;;;;0.73;0.40;;;;;;;30.69;32.94;99682.13;5141062;28;20061;-70
2022/07/02 09:21:51;;;;;;;1.38;0.40;;;;;;;29.09;31.79;99674.84;5125815;28;20567;-70
2022/07/02 09:24:43;;;;;;;3.33;0.30;;;;;;;30.27;30.41;99675.41;5141925;28;20524;-70
2022/07/02 09:27:34;;;;;;;0.70;0.50;;;;;;;29.90;31.59;99665.09;5140765;28;20050;-70
2022/07/02 09:30:29;;;;;;;1.80;0.75;;;;;;;30.37;33.62;99663.75;5141565;28;20047;-70
2022/07/02 09:33:28;;;;;;;4.00;0.57;;;;;;;30.52;31.52;99671.28;5141099;28;20427;-71
2022/07/02 09:36:19;;;;;;;1.77;0.50;;;;;;;29.97;32.09;99651.25;5139216;28;20055;-70
2022/07/02 09:39:09;;;;;;;3.92;0.60;;;;;;;30.21;33.02;99654.56;5142084;28;20046;-70
2022/07/02 09:42:00;;;;;;;0.43;0.40;;;;;;;30.72;31.82;99662.44;5125748;28;20050;-70
2022/07/02 09:44:50;;;;;;;0.50;0.50;;;;;;;30.47;31.27;99652.09;5141959;28;20098;-70
2022/07/02 09:47:49;;;;;;;0.65;0.47;;;;;;;30.98;31.18;99669.00;5139735;28;20062;-70
2022/07/02 09:50:40;;;;;;;0.93;0.50;;;;;;;29.40;32.16;99643.34;5141425;28;20109;-70
2022/07/02 09:53:30;;;;;;;1.40;0.45;;;;;;;30.52;31.98;99663.88;5141618;28;20062;-70
2022/07/02 09:56:23;;;;;;;12.38;0.85;;;;;;;29.90;34.91;99667.84;5127167;28;20133;-70
2022/07/02 09:59:14;;;;;;;1.17;0.40;;;;;;;30.61;31.96;99659.59;5141541;28;20130;-70
2022/07/02 10:02:05;;;;;;;0.43;0.40;;;;;;;31.17;32.95;99672.16;5125571;28;20047;-69
2022/07/02 10:04:56;;;;;;;0.52;0.35;;;;;;;31.17;30.88;99663.94;5141529;28;20464;-70
2022/07/02 10:07:46;;;;;;;0.52;0.50;;;;;;;31.03;31.70;99647.97;5141238;28;20175;-70
2022/07/02 10:10:40;;;;;;;0.65;0.45;;;;;;;31.09;31.66;99670.72;5141331;28;20074;-70
2022/07/02 10:13:32;;;;;;;0.95;0.65;;;;;;;31.47;31.61;99668.84;5139820;28;20061;-70
2022/07/02 10:16:24;;;;;;;2.90;0.60;;;;;;;30.56;31.56;99664.19;5132364;28;20145;-72
2022/07/02 10:19:15;;;;;;;0.40;0.40;;;;;;;30.71;33.07;99672.56;5141219;28;20111;-71
2022/07/02 10:22:07;;;;;;;0.85;0.55;;;;;;;30.48;31.28;99654.56;5124164;28;20070;-71
2022/07/02 10:24:58;;;;;;;3.08;0.40;;;;;;;30.71;29.71;99663.53;5140254;28;20528;-71
2022/07/02 10:27:48;;;;;;;0.40;0.40;;;;;;;30.76;31.50;99652.63;5140242;28;20069;-71
2022/07/02 10:30:40;;;;;;;2.90;0.40;;;;;;;30.85;30.99;99637.41;5128791;28;20073;-71
2022/07/02 10:33:46;;;;;;;1.13;0.43;;;;;;;30.35;31.43;99628.44;5153194;28;20239;-71
2022/07/02 10:36:36;;;;;;;1.05;0.50;;;;;;;29.81;33.30;99630.28;5141073;28;20193;-71
2022/07/02 10:39:38;;;;;;;0.80;0.40;;;;;;;30.84;32.79;99622.88;5141375;28;20113;-71
2022/07/02 10:42:59;;;;;;;2.40;0.43;;;;;;;31.61;28.57;99619.84;5143270;28;20069;-71
2022/07/02 10:46:00;;;;;;;0.40;0.35;;;;;;;31.09;29.46;99616.78;5140818;28;20054;-71
2022/07/02 10:48:55;;;;;;;1.55;0.52;;;;;;;30.89;29.82;99622.09;5155723;28;20062;-71
2022/07/02 10:51:45;;;;;;;0.30;0.30;;;;;;;30.19;28.73;99618.41;5141140;28;20061;-71
2022/07/02 10:54:42;;;;;;;3.40;1.50;;;;;;;29.54;29.08;99624.66;5141831;28;20065;-71
2022/07/02 10:57:33;;;;;;;0.75;0.45;;;;;;;29.46;31.83;99613.09;5143517;28;20137;-71
2022/07/02 11:00:28;;;;;;;1.10;0.40;;;;;;;29.25;30.64;99609.28;5143108;28;20039;-71
2022/07/02 11:03:24;;;;;;;1.50;0.40;;;;;;;29.78;30.76;99604.25;5140800;28;20053;-72
2022/07/02 11:06:20;;;;;;;1.23;0.40;;;;;;;30.02;31.30;99612.19;5143311;28;20516;-71
2022/07/02 11:09:10;;;;;;;0.50;0.40;;;;;;;29.84;29.47;99614.19;5143058;28;20057;-69
2022/07/02 11:12:04;;;;;;;0.57;0.40;;;;;;;30.25;32.21;99605.63;5142357;28;20517;-71
2022/07/02 11:14:56;;;;;;;1.55;0.50;;;;;;;30.40;28.63;99603.88;5143643;28;20065;-71
2022/07/02 11:18:07;;;;;;;0.63;0.60;;;;;;;28.79;33.24;99602.25;5135020;28;20050;-70
2022/07/02 11:20:58;;;;;;;1.98;0.80;;;;;;;28.47;30.71;99589.16;5143740;28;20055;-69
2022/07/02 11:23:49;;;;;;;1.67;1.20;;;;;;;28.59;32.53;99583.66;5143712;28;20072;-68
2022/07/02 11:26:42;;;;;;;0.52;0.30;;;;;;;28.59;31.12;99591.84;5144836;28;20065;-69
2022/07/02 11:29:34;;;;;;;3.08;0.45;;;;;;;28.98;30.60;99584.56;5143033;28;20190;-69
2022/07/02 11:32:35;;;;;;;0.30;0.30;;;;;;;28.42;30.33;99586.38;5148477;28;20192;-69
2022/07/02 11:35:25;;;;;;;2.38;0.55;;;;;;;28.16;30.19;99586.94;5143957;28;20057;-70
2022/07/02 11:38:15;;;;;;;0.90;0.50;;;;;;;28.09;30.11;99584.38;5143578;28;20057;-69
2022/07/02 11:41:35;;;;;;;1.67;0.43;;;;;;;29.01;31.44;99575.88;5143614;28;20054;-69
2022/07/02 11:44:28;;;;;;;0.57;0.50;;;;;;;29.63;31.90;99569.34;5141052;28;20055;-69
2022/07/02 11:47:19;;;;;;;0.93;0.47;;;;;;;29.34;30.19;99571.44;5130032;28;20061;-69
2022/07/02 11:50:09;;;;;;;1.40;0.70;;;;;;;28.87;29.82;99557.34;5142652;28;20091;-69
2022/07/02 11:53:00;;;;;;;1.13;0.57;;;;;;;28.38;32.78;99560.63;5142422;28;20051;-70
2022/07/02 11:55:51;;;;;;;2.28;0.70;;;;;;;28.54;33.71;99562.56;5144478;28;20516;-70
2022/07/02 11:58:46;;;;;;;0.32;0.32;;;;;;;28.83;32.48;99565.19;5128722;28;20464;-70
2022/07/02 12:01:39;;;;;;;0.93;0.40;;;;;;;27.99;31.48;99563.19;5141529;28;20047;-70
2022/07/02 12:04:29;;;;;;;1.30;0.30;;;;;;;28.53;30.21;99568.28;5143434;28;20047;-70
2022/07/02 12:07:20;;;;;;;0.40;0.32;;;;;;;28.64;32.33;99564.63;5143337;28;20125;-70
2022/07/02 12:10:12;;;;;;;1.27;0.40;;;;;;;27.90;33.16;99551.03;5141767;28;20051;-69
2022/07/02 12:13:09;;;;;;;0.50;0.43;;;;;;;27.99;33.78;99535.94;5141306;28;20139;-69
2022/07/02 12:16:00;;;;;;;1.20;0.50;;;;;;;28.27;31.99;99526.06;5142959;28;20465;-70
2022/07/02 12:18:56;;;;;;;0.60;0.43;;;;;;;28.78;32.27;99543.31;5143236;28;20428;-73
2022/07/02 12:21:50;;;;;;;1.17;0.50;;;;;;;28.85;33.00;99530.31;5141431;28;20051;-70
2022/07/02 12:24:40;;;;;;;1.67;0.35;;;;;;;28.34;31.77;99532.19;5142829;28;20061;-69
2022/07/02 12:27:32;;;;;;;1.02;0.50;;;;;;;28.17;31.64;99534.06;5142126;28;20062;-70
2022/07/02 12:30:25;;;;;;;0.57;0.47;;;;;;;28.27;30.43;99526.06;5141003;28;20074;-69
2022/07/02 12:33:37;;;;;;;0.50;0.30;;;;;;;28.12;32.87;99523.91;5141939;28;20062;-69
2022/07/02 12:36:28;;;;;;;2.63;0.60;;;;;;;27.69;32.89;99525.25;5127599;28;20105;-72
2022/07/02 12:39:20;;;;;;;2.67;0.60;;;;;;;27.76;31.78;99506.03;5154774;28;20058;-71
2022/07/02 12:42:15;;;;;;;0.73;0.47;;;;;;;28.06;30.94;99503.91;5140153;28;20112;-71
2022/07/02 12:45:07;;;;;;;1.05;0.50;;;;;;;28.25;32.32;99506.41;5142719;28;20144;-70
2022/07/02 12:48:01;;;;;;;1.45;0.73;;;;;;;28.32;32.48;99494.25;5140789;28;20529;-70
2022/07/02 12:50:52;;;;;;;0.75;0.50;;;;;;;28.10;30.95;99494.16;5141759;28;20061;-71
2022/07/02 12:53:42;;;;;;;1.83;0.60;;;;;;;27.95;32.46;99490.34;5139191;28;20508;-71
2022/07/02 12:56:39;;;;;;;0.40;0.40;;;;;;;27.77;32.85;99488.66;5141683;28;20129;-71
2022/07/02 12:59:29;;;;;;;0.55;0.50;;;;;;;27.46;31.94;99488.03;5140964;28;20047;-69
2022/07/02 13:02:28;;;;;;;0.47;0.40;;;;;;;27.58;32.08;99479.81;5138729;28;20054;-69
2022/07/02 13:05:19;;;;;;;0.65;0.50;;;;;;;27.81;33.11;99485.19;5142120;28;20058;-69
2022/07/02 13:08:09;;;;;;;1.58;0.60;;;;;;;27.85;31.74;99475.47;5141990;28;20101;-70
2022/07/02 13:10:59;;;;;;;0.65;0.60;;;;;;;27.68;32.48;99474.56;5141779;28;20054;-69
2022/07/02 13:13:50;;;;;;;0.40;0.40;;;;;;;27.71;31.45;99468.63;5140321;28;20054;-70
2022/07/02 13:16:40;;;;;;;0.98;0.40;;;;;;;27.63;30.68;99458.13;5141541;28;20467;-69
2022/07/02 13:19:33;;;;;;;0.50;0.50;;;;;;;27.13;31.98;99451.44;5140283;28;20057;-69
2022/07/02 13:22:26;;;;;;;1.60;0.60;;;;;;;27.87;32.34;99462.41;5128414;28;20117;-69
2022/07/02 13:25:17;;;;;;;0.50;0.50;;;;;;;27.60;31.93;99455.88;5140805;28;20070;-69
2022/07/02 13:28:07;;;;;;;0.75;0.40;;;;;;;27.46;31.58;99436.28;5140221;28;20489;-69
2022/07/02 13:30:58;;;;;;;1.73;0.60;;;;;;;27.72;31.08;99445.78;5126500;28;20066;-68